sensor_id;sensor_type;location;lat;lon;timestamp;temperature;humidity
31733;DHT22;18312;51.486;7.144;2023-05-24T00:01:12;7.40;99.90
31733;DHT22;18312;51.486;7.144;2023-05-24T00:03:40;7.30;99.90
31733;DHT22;18312;51.486;7.144;2023-05-24T00:06:11;7.20;99.90
31733;DHT22;18312;51.486;7.144;2023-05-24T00:08:37;7.10;99.90
31733;DHT22;18312;51.486;7.144;2023-05-24T00:11:04;7.10;99.90
31733;DHT22;18312;51.486;7.144;2023-05-24T00:13:31;7.10;99.90
31733;DHT22;18312;51.486;7.144;2023-05-24T00:15:58;7.10;99.90
31733;DHT22;18312;51.486;7.144;2023-05-24T00:18:26;7.10;99.90
31733;DHT22;18312;51.486;7.144;2023-05-24T00:20:55;7.10;99.90
31733;DHT22;18312;51.486;7.144;2023-05-24T00:23:23;6.90;99.90
31733;DHT22;18312;51.486;7.144;2023-05-24T00:25:50;6.90;99.90
31733;DHT22;18312;51.486;7.144;2023-05-24T00:28:16;6.80;99.90
31733;DHT22;18312;51.486;7.144;2023-05-24T00:30:43;6.80;99.90
31733;DHT22;18312;51.486;7.144;2023-05-24T00:33:10;6.70;99.90
31733;DHT22;18312;51.486;7.144;2023-05-24T00:35:38;6.70;99.90
31733;DHT22;18312;51.486;7.144;2023-05-24T00:38:05;6.60;99.90
31733;DHT22;18312;51.486;7.144;2023-05-24T00:40:31;6.70;99.90
31733;DHT22;18312;51.486;7.144;2023-05-24T00:42:58;6.60;99.90
31733;DHT22;18312;51.486;7.144;2023-05-24T00:45:25;6.60;99.90
31733;DHT22;18312;51.486;7.144;2023-05-24T00:47:52;6.40;99.90
31733;DHT22;18312;51.486;7.144;2023-05-24T00:50:19;6.40;99.90
31733;DHT22;18312;51.486;7.144;2023-05-24T00:52:48;6.40;99.90
31733;DHT22;18312;51.486;7.144;2023-05-24T00:55:16;6.40;99.90
31733;DHT22;18312;51.486;7.144;2023-05-24T00:57:43;6.40;99.90
31733;DHT22;18312;51.486;7.144;2023-05-24T01:00:11;6.30;99.90
31733;DHT22;18312;51.486;7.144;2023-05-24T01:02:38;6.30;99.90
31733;DHT22;18312;51.486;7.144;2023-05-24T01:05:05;6.20;99.90
31733;DHT22;18312;51.486;7.144;2023-05-24T01:07:38;6.20;99.90
31733;DHT22;18312;51.486;7.144;2023-05-24T01:10:14;6.20;99.90
31733;DHT22;18312;51.486;7.144;2023-05-24T01:12:51;6.10;99.90
31733;DHT22;18312;51.486;7.144;2023-05-24T01:15:24;6.10;99.90
31733;DHT22;18312;51.486;7.144;2023-05-24T01:18:01;6.00;99.90
31733;DHT22;18312;51.486;7.144;2023-05-24T01:20:32;6.00;99.90
31733;DHT22;18312;51.486;7.144;2023-05-24T01:23:25;6.00;99.90
31733;DHT22;18312;51.486;7.144;2023-05-24T01:26:13;6.00;99.90
31733;DHT22;18312;51.486;7.144;2023-05-24T01:28:46;5.90;99.90
31733;DHT22;18312;51.486;7.144;2023-05-24T01:31:14;5.90;99.90
31733;DHT22;18312;51.486;7.144;2023-05-24T01:33:41;5.90;99.90
31733;DHT22;18312;51.486;7.144;2023-05-24T01:36:08;5.90;99.90
31733;DHT22;18312;51.486;7.144;2023-05-24T01:38:35;5.90;99.90
31733;DHT22;18312;51.486;7.144;2023-05-24T01:41:08;5.90;99.90
31733;DHT22;18312;51.486;7.144;2023-05-24T01:43:40;5.80;99.90
31733;DHT22;18312;51.486;7.144;2023-05-24T01:46:15;5.80;99.90
31733;DHT22;18312;51.486;7.144;2023-05-24T01:48:50;5.70;99.90
31733;DHT22;18312;51.486;7.144;2023-05-24T01:51:22;5.70;99.90
31733;DHT22;18312;51.486;7.144;2023-05-24T01:53:49;5.70;99.90
31733;DHT22;18312;51.486;7.144;2023-05-24T01:56:18;5.70;99.90
31733;DHT22;18312;51.486;7.144;2023-05-24T01:58:46;5.80;99.90
31733;DHT22;18312;51.486;7.144;2023-05-24T02:01:16;5.70;99.90
31733;DHT22;18312;51.486;7.144;2023-05-24T02:03:43;5.80;99.90
31733;DHT22;18312;51.486;7.144;2023-05-24T02:06:10;5.70;99.90
31733;DHT22;18312;51.486;7.144;2023-05-24T02:08:37;5.70;99.90
31733;DHT22;18312;51.486;7.144;2023-05-24T02:11:04;5.70;99.90
31733;DHT22;18312;51.486;7.144;2023-05-24T02:13:30;5.60;99.90
31733;DHT22;18312;51.486;7.144;2023-05-24T02:15:57;5.70;99.90
31733;DHT22;18312;51.486;7.144;2023-05-24T02:18:25;5.60;99.90
31733;DHT22;18312;51.486;7.144;2023-05-24T02:20:52;5.60;99.90
31733;DHT22;18312;51.486;7.144;2023-05-24T02:23:19;5.50;99.90
31733;DHT22;18312;51.486;7.144;2023-05-24T02:25:45;5.50;99.90
31733;DHT22;18312;51.486;7.144;2023-05-24T02:28:12;5.50;99.90
31733;DHT22;18312;51.486;7.144;2023-05-24T02:30:39;5.50;99.90
31733;DHT22;18312;51.486;7.144;2023-05-24T02:33:08;5.40;99.90
31733;DHT22;18312;51.486;7.144;2023-05-24T02:35:37;5.50;99.90
31733;DHT22;18312;51.486;7.144;2023-05-24T02:38:05;5.40;99.90
31733;DHT22;18312;51.486;7.144;2023-05-24T02:40:34;5.30;99.90
31733;DHT22;18312;51.486;7.144;2023-05-24T02:43:00;5.20;99.90
31733;DHT22;18312;51.486;7.144;2023-05-24T02:45:27;5.20;99.90
31733;DHT22;18312;51.486;7.144;2023-05-24T02:47:54;5.10;99.90
31733;DHT22;18312;51.486;7.144;2023-05-24T02:50:20;5.10;99.90
31733;DHT22;18312;51.486;7.144;2023-05-24T02:52:48;5.00;99.90
31733;DHT22;18312;51.486;7.144;2023-05-24T02:55:16;5.00;99.90
31733;DHT22;18312;51.486;7.144;2023-05-24T02:57:42;5.00;99.90
31733;DHT22;18312;51.486;7.144;2023-05-24T03:00:10;4.90;99.90
31733;DHT22;18312;51.486;7.144;2023-05-24T03:02:37;4.90;99.90
31733;DHT22;18312;51.486;7.144;2023-05-24T03:05:05;5.00;99.90
31733;DHT22;18312;51.486;7.144;2023-05-24T03:07:32;5.00;99.90
31733;DHT22;18312;51.486;7.144;2023-05-24T03:10:00;5.00;99.90
31733;DHT22;18312;51.486;7.144;2023-05-24T03:12:27;5.10;99.90
31733;DHT22;18312;51.486;7.144;2023-05-24T03:14:54;5.10;99.90
31733;DHT22;18312;51.486;7.144;2023-05-24T03:17:20;5.00;99.90
31733;DHT22;18312;51.486;7.144;2023-05-24T03:19:47;5.00;99.90
31733;DHT22;18312;51.486;7.144;2023-05-24T03:22:14;5.00;99.90
31733;DHT22;18312;51.486;7.144;2023-05-24T03:24:41;5.00;99.90
31733;DHT22;18312;51.486;7.144;2023-05-24T03:27:09;4.90;99.90
31733;DHT22;18312;51.486;7.144;2023-05-24T03:29:35;4.90;99.90
31733;DHT22;18312;51.486;7.144;2023-05-24T03:32:02;4.90;99.90
31733;DHT22;18312;51.486;7.144;2023-05-24T03:34:29;5.00;99.90
31733;DHT22;18312;51.486;7.144;2023-05-24T03:36:56;5.00;99.90
31733;DHT22;18312;51.486;7.144;2023-05-24T03:39:23;5.00;99.90
31733;DHT22;18312;51.486;7.144;2023-05-24T03:41:50;5.00;99.90
31733;DHT22;18312;51.486;7.144;2023-05-24T03:44:18;5.00;99.90
31733;DHT22;18312;51.486;7.144;2023-05-24T03:46:44;5.00;99.90
31733;DHT22;18312;51.486;7.144;2023-05-24T03:49:11;5.00;99.90
31733;DHT22;18312;51.486;7.144;2023-05-24T03:51:38;5.10;99.90
31733;DHT22;18312;51.486;7.144;2023-05-24T03:54:05;5.20;99.90
31733;DHT22;18312;51.486;7.144;2023-05-24T03:56:31;5.20;99.90
31733;DHT22;18312;51.486;7.144;2023-05-24T03:58:58;5.20;99.90
31733;DHT22;18312;51.486;7.144;2023-05-24T04:01:26;5.20;99.90
31733;DHT22;18312;51.486;7.144;2023-05-24T04:03:55;5.20;99.90
31733;DHT22;18312;51.486;7.144;2023-05-24T04:06:22;5.30;99.90
31733;DHT22;18312;51.486;7.144;2023-05-24T04:08:53;5.30;99.90
31733;DHT22;18312;51.486;7.144;2023-05-24T04:11:20;5.50;99.90
31733;DHT22;18312;51.486;7.144;2023-05-24T04:13:48;5.60;99.90
31733;DHT22;18312;51.486;7.144;2023-05-24T04:16:15;5.80;99.90
31733;DHT22;18312;51.486;7.144;2023-05-24T04:18:44;5.90;99.90
31733;DHT22;18312;51.486;7.144;2023-05-24T04:21:10;5.80;99.90
31733;DHT22;18312;51.486;7.144;2023-05-24T04:23:37;5.90;99.90
31733;DHT22;18312;51.486;7.144;2023-05-24T04:26:04;6.00;99.90
31733;DHT22;18312;51.486;7.144;2023-05-24T04:28:31;6.10;99.90
31733;DHT22;18312;51.486;7.144;2023-05-24T04:30:58;6.10;99.90
31733;DHT22;18312;51.486;7.144;2023-05-24T04:33:26;6.10;99.90
31733;DHT22;18312;51.486;7.144;2023-05-24T04:35:54;6.00;99.90
31733;DHT22;18312;51.486;7.144;2023-05-24T04:38:21;6.10;99.90
31733;DHT22;18312;51.486;7.144;2023-05-24T04:40:49;6.20;99.90
31733;DHT22;18312;51.486;7.144;2023-05-24T04:43:16;6.20;99.90
31733;DHT22;18312;51.486;7.144;2023-05-24T04:45:42;6.30;99.90
31733;DHT22;18312;51.486;7.144;2023-05-24T04:48:09;6.40;99.90
31733;DHT22;18312;51.486;7.144;2023-05-24T04:50:36;6.50;99.90
31733;DHT22;18312;51.486;7.144;2023-05-24T04:53:04;6.60;99.90
31733;DHT22;18312;51.486;7.144;2023-05-24T04:55:31;6.80;99.90
31733;DHT22;18312;51.486;7.144;2023-05-24T04:57:58;7.00;99.90
31733;DHT22;18312;51.486;7.144;2023-05-24T05:00:25;7.10;99.90
31733;DHT22;18312;51.486;7.144;2023-05-24T05:02:51;7.20;99.90
31733;DHT22;18312;51.486;7.144;2023-05-24T05:05:18;7.30;99.90
31733;DHT22;18312;51.486;7.144;2023-05-24T05:07:45;7.40;99.90
31733;DHT22;18312;51.486;7.144;2023-05-24T05:10:14;7.50;99.90
31733;DHT22;18312;51.486;7.144;2023-05-24T05:12:41;7.60;99.90
31733;DHT22;18312;51.486;7.144;2023-05-24T05:15:08;7.70;99.90
31733;DHT22;18312;51.486;7.144;2023-05-24T05:17:35;7.80;99.90
31733;DHT22;18312;51.486;7.144;2023-05-24T05:20:02;7.90;99.90
31733;DHT22;18312;51.486;7.144;2023-05-24T05:22:29;8.10;99.90
31733;DHT22;18312;51.486;7.144;2023-05-24T05:24:56;8.10;99.90
31733;DHT22;18312;51.486;7.144;2023-05-24T05:27:24;8.30;99.90
31733;DHT22;18312;51.486;7.144;2023-05-24T05:29:50;8.40;99.90
31733;DHT22;18312;51.486;7.144;2023-05-24T05:32:17;8.50;99.90
31733;DHT22;18312;51.486;7.144;2023-05-24T05:34:44;8.60;99.90
31733;DHT22;18312;51.486;7.144;2023-05-24T05:37:11;8.80;99.90
31733;DHT22;18312;51.486;7.144;2023-05-24T05:39:37;8.90;99.90
31733;DHT22;18312;51.486;7.144;2023-05-24T05:42:05;9.10;99.90
31733;DHT22;18312;51.486;7.144;2023-05-24T05:44:33;9.60;99.90
31733;DHT22;18312;51.486;7.144;2023-05-24T05:46:59;9.70;99.90
31733;DHT22;18312;51.486;7.144;2023-05-24T05:49:28;9.70;99.90
31733;DHT22;18312;51.486;7.144;2023-05-24T05:51:56;10.30;99.90
31733;DHT22;18312;51.486;7.144;2023-05-24T05:54:22;10.40;99.90
31733;DHT22;18312;51.486;7.144;2023-05-24T05:56:49;10.70;99.90
31733;DHT22;18312;51.486;7.144;2023-05-24T05:59:16;10.90;99.90
31733;DHT22;18312;51.486;7.144;2023-05-24T06:01:45;10.70;99.90
31733;DHT22;18312;51.486;7.144;2023-05-24T06:04:13;10.70;99.90
31733;DHT22;18312;51.486;7.144;2023-05-24T06:06:40;10.60;99.90
31733;DHT22;18312;51.486;7.144;2023-05-24T06:09:08;10.70;99.90
31733;DHT22;18312;51.486;7.144;2023-05-24T06:11:35;11.40;99.90
31733;DHT22;18312;51.486;7.144;2023-05-24T06:14:02;11.20;99.90
31733;DHT22;18312;51.486;7.144;2023-05-24T06:16:29;11.50;99.90
31733;DHT22;18312;51.486;7.144;2023-05-24T06:18:58;11.70;99.90
31733;DHT22;18312;51.486;7.144;2023-05-24T06:21:25;12.10;99.90
31733;DHT22;18312;51.486;7.144;2023-05-24T06:23:51;11.70;99.90
31733;DHT22;18312;51.486;7.144;2023-05-24T06:26:18;11.40;99.90
31733;DHT22;18312;51.486;7.144;2023-05-24T06:28:45;12.10;99.90
31733;DHT22;18312;51.486;7.144;2023-05-24T06:31:12;12.90;99.90
31733;DHT22;18312;51.486;7.144;2023-05-24T06:33:39;13.10;99.90
31733;DHT22;18312;51.486;7.144;2023-05-24T06:36:07;12.70;99.90
31733;DHT22;18312;51.486;7.144;2023-05-24T06:38:34;12.30;99.90
31733;DHT22;18312;51.486;7.144;2023-05-24T06:41:01;12.00;99.90
31733;DHT22;18312;51.486;7.144;2023-05-24T06:43:27;12.10;99.90
31733;DHT22;18312;51.486;7.144;2023-05-24T06:45:55;12.00;99.90
31733;DHT22;18312;51.486;7.144;2023-05-24T06:48:22;11.80;99.90
31733;DHT22;18312;51.486;7.144;2023-05-24T06:50:49;11.70;99.90
31733;DHT22;18312;51.486;7.144;2023-05-24T06:53:17;12.00;99.90
31733;DHT22;18312;51.486;7.144;2023-05-24T06:55:43;11.80;99.90
31733;DHT22;18312;51.486;7.144;2023-05-24T06:58:10;11.90;99.90
31733;DHT22;18312;51.486;7.144;2023-05-24T07:00:39;12.50;99.90
31733;DHT22;18312;51.486;7.144;2023-05-24T07:03:05;12.20;99.90
31733;DHT22;18312;51.486;7.144;2023-05-24T07:05:32;12.30;99.90
31733;DHT22;18312;51.486;7.144;2023-05-24T07:07:59;12.00;99.90
31733;DHT22;18312;51.486;7.144;2023-05-24T07:10:27;11.90;99.90
31733;DHT22;18312;51.486;7.144;2023-05-24T07:12:54;12.10;99.90
31733;DHT22;18312;51.486;7.144;2023-05-24T07:15:21;12.60;99.90
31733;DHT22;18312;51.486;7.144;2023-05-24T07:17:47;12.90;99.90
31733;DHT22;18312;51.486;7.144;2023-05-24T07:20:14;12.30;99.90
31733;DHT22;18312;51.486;7.144;2023-05-24T07:22:41;12.50;99.90
31733;DHT22;18312;51.486;7.144;2023-05-24T07:25:09;12.60;99.90
31733;DHT22;18312;51.486;7.144;2023-05-24T07:27:37;13.50;99.90
31733;DHT22;18312;51.486;7.144;2023-05-24T07:30:05;14.30;98.80
31733;DHT22;18312;51.486;7.144;2023-05-24T07:32:32;13.30;99.00
31733;DHT22;18312;51.486;7.144;2023-05-24T07:34:59;13.40;99.90
31733;DHT22;18312;51.486;7.144;2023-05-24T07:37:25;13.50;99.90
31733;DHT22;18312;51.486;7.144;2023-05-24T07:39:52;13.70;99.90
31733;DHT22;18312;51.486;7.144;2023-05-24T07:42:19;13.30;99.90
31733;DHT22;18312;51.486;7.144;2023-05-24T07:44:47;12.70;99.40
31733;DHT22;18312;51.486;7.144;2023-05-24T07:47:14;12.80;99.90
31733;DHT22;18312;51.486;7.144;2023-05-24T07:49:41;13.00;98.30
31733;DHT22;18312;51.486;7.144;2023-05-24T07:52:08;13.30;98.40
31733;DHT22;18312;51.486;7.144;2023-05-24T07:54:34;13.50;99.40
31733;DHT22;18312;51.486;7.144;2023-05-24T07:57:01;13.70;97.50
31733;DHT22;18312;51.486;7.144;2023-05-24T07:59:29;13.60;96.90
31733;DHT22;18312;51.486;7.144;2023-05-24T08:01:57;14.40;96.10
31733;DHT22;18312;51.486;7.144;2023-05-24T08:04:28;15.50;94.60
31733;DHT22;18312;51.486;7.144;2023-05-24T08:06:55;15.10;94.60
31733;DHT22;18312;51.486;7.144;2023-05-24T08:09:22;14.40;95.30
31733;DHT22;18312;51.486;7.144;2023-05-24T08:11:49;14.00;95.70
31733;DHT22;18312;51.486;7.144;2023-05-24T08:14:15;13.60;94.70
31733;DHT22;18312;51.486;7.144;2023-05-24T08:16:42;13.10;95.00
31733;DHT22;18312;51.486;7.144;2023-05-24T08:19:10;13.50;95.70
31733;DHT22;18312;51.486;7.144;2023-05-24T08:21:37;13.40;96.00
31733;DHT22;18312;51.486;7.144;2023-05-24T08:24:04;13.20;95.80
31733;DHT22;18312;51.486;7.144;2023-05-24T08:26:30;13.30;95.70
31733;DHT22;18312;51.486;7.144;2023-05-24T08:28:57;13.60;96.20
31733;DHT22;18312;51.486;7.144;2023-05-24T08:31:24;13.50;94.80
31733;DHT22;18312;51.486;7.144;2023-05-24T08:33:51;13.70;95.30
31733;DHT22;18312;51.486;7.144;2023-05-24T08:36:19;13.30;95.40
31733;DHT22;18312;51.486;7.144;2023-05-24T08:38:46;13.40;96.20
31733;DHT22;18312;51.486;7.144;2023-05-24T08:41:13;13.60;96.30
31733;DHT22;18312;51.486;7.144;2023-05-24T08:43:41;13.80;96.80
31733;DHT22;18312;51.486;7.144;2023-05-24T08:46:08;13.20;95.00
31733;DHT22;18312;51.486;7.144;2023-05-24T08:48:44;13.30;96.00
31733;DHT22;18312;51.486;7.144;2023-05-24T08:51:12;13.30;96.30
31733;DHT22;18312;51.486;7.144;2023-05-24T08:53:41;13.60;97.40
31733;DHT22;18312;51.486;7.144;2023-05-24T08:56:14;13.40;96.50
31733;DHT22;18312;51.486;7.144;2023-05-24T08:58:42;12.70;96.80
31733;DHT22;18312;51.486;7.144;2023-05-24T09:01:10;13.00;97.00
31733;DHT22;18312;51.486;7.144;2023-05-24T09:03:39;13.40;96.30
31733;DHT22;18312;51.486;7.144;2023-05-24T09:06:08;13.50;94.40
31733;DHT22;18312;51.486;7.144;2023-05-24T09:08:36;14.10;95.20
31733;DHT22;18312;51.486;7.144;2023-05-24T09:11:04;14.10;94.50
31733;DHT22;18312;51.486;7.144;2023-05-24T09:13:33;14.00;94.10
31733;DHT22;18312;51.486;7.144;2023-05-24T09:16:01;13.80;93.80
31733;DHT22;18312;51.486;7.144;2023-05-24T09:18:28;13.80;93.90
31733;DHT22;18312;51.486;7.144;2023-05-24T09:20:55;13.90;92.50
31733;DHT22;18312;51.486;7.144;2023-05-24T09:23:22;14.80;92.60
31733;DHT22;18312;51.486;7.144;2023-05-24T09:25:49;15.50;92.30
31733;DHT22;18312;51.486;7.144;2023-05-24T09:28:18;15.40;92.20
31733;DHT22;18312;51.486;7.144;2023-05-24T09:30:56;14.90;91.50
31733;DHT22;18312;51.486;7.144;2023-05-24T09:33:27;14.80;91.40
31733;DHT22;18312;51.486;7.144;2023-05-24T09:35:57;15.20;91.90
31733;DHT22;18312;51.486;7.144;2023-05-24T09:38:24;15.00;90.60
31733;DHT22;18312;51.486;7.144;2023-05-24T09:41:00;15.60;90.90
31733;DHT22;18312;51.486;7.144;2023-05-24T09:43:29;15.80;90.90
31733;DHT22;18312;51.486;7.144;2023-05-24T09:45:57;15.70;91.00
31733;DHT22;18312;51.486;7.144;2023-05-24T09:48:25;15.60;90.80
31733;DHT22;18312;51.486;7.144;2023-05-24T09:51:05;14.70;90.90
31733;DHT22;18312;51.486;7.144;2023-05-24T09:53:34;15.00;91.10
31733;DHT22;18312;51.486;7.144;2023-05-24T09:56:02;15.30;90.30
31733;DHT22;18312;51.486;7.144;2023-05-24T09:58:32;15.60;90.30
31733;DHT22;18312;51.486;7.144;2023-05-24T10:01:06;15.50;91.50
31733;DHT22;18312;51.486;7.144;2023-05-24T10:03:33;15.60;90.90
31733;DHT22;18312;51.486;7.144;2023-05-24T10:06:02;15.30;89.90
31733;DHT22;18312;51.486;7.144;2023-05-24T10:08:32;15.80;90.20
31733;DHT22;18312;51.486;7.144;2023-05-24T10:11:00;16.00;89.50
31733;DHT22;18312;51.486;7.144;2023-05-24T10:13:27;15.50;90.40
31733;DHT22;18312;51.486;7.144;2023-05-24T10:15:55;15.20;90.30
31733;DHT22;18312;51.486;7.144;2023-05-24T10:18:22;15.40;91.00
31733;DHT22;18312;51.486;7.144;2023-05-24T10:20:50;15.20;90.70
31733;DHT22;18312;51.486;7.144;2023-05-24T10:23:19;15.00;90.90
31733;DHT22;18312;51.486;7.144;2023-05-24T10:25:50;14.60;90.70
31733;DHT22;18312;51.486;7.144;2023-05-24T10:28:19;14.50;91.20
31733;DHT22;18312;51.486;7.144;2023-05-24T10:30:55;14.10;90.60
31733;DHT22;18312;51.486;7.144;2023-05-24T10:33:25;14.10;91.20
31733;DHT22;18312;51.486;7.144;2023-05-24T10:35:52;14.40;91.10
31733;DHT22;18312;51.486;7.144;2023-05-24T10:38:22;14.00;90.90
31733;DHT22;18312;51.486;7.144;2023-05-24T10:40:49;14.20;91.00
31733;DHT22;18312;51.486;7.144;2023-05-24T10:43:16;14.20;91.40
31733;DHT22;18312;51.486;7.144;2023-05-24T10:45:47;13.90;90.90
31733;DHT22;18312;51.486;7.144;2023-05-24T10:48:40;14.20;91.10
31733;DHT22;18312;51.486;7.144;2023-05-24T10:51:29;14.80;91.00
31733;DHT22;18312;51.486;7.144;2023-05-24T10:54:10;14.30;89.30
31733;DHT22;18312;51.486;7.144;2023-05-24T10:56:39;14.60;89.60
31733;DHT22;18312;51.486;7.144;2023-05-24T10:59:06;14.80;90.10
31733;DHT22;18312;51.486;7.144;2023-05-24T11:01:33;15.30;88.60
31733;DHT22;18312;51.486;7.144;2023-05-24T11:04:09;15.70;88.70
31733;DHT22;18312;51.486;7.144;2023-05-24T11:06:46;15.90;88.60
31733;DHT22;18312;51.486;7.144;2023-05-24T11:09:14;15.90;88.30
31733;DHT22;18312;51.486;7.144;2023-05-24T11:11:43;15.60;87.50
31733;DHT22;18312;51.486;7.144;2023-05-24T11:14:12;15.40;86.90
31733;DHT22;18312;51.486;7.144;2023-05-24T11:16:40;15.30;88.50
31733;DHT22;18312;51.486;7.144;2023-05-24T11:19:15;15.10;89.40
31733;DHT22;18312;51.486;7.144;2023-05-24T11:21:43;15.10;90.10
31733;DHT22;18312;51.486;7.144;2023-05-24T11:24:11;15.40;90.10
31733;DHT22;18312;51.486;7.144;2023-05-24T11:26:38;15.50;90.10
31733;DHT22;18312;51.486;7.144;2023-05-24T11:29:06;15.50;89.30
31733;DHT22;18312;51.486;7.144;2023-05-24T11:31:33;15.60;88.10
31733;DHT22;18312;51.486;7.144;2023-05-24T11:34:04;15.50;88.30
31733;DHT22;18312;51.486;7.144;2023-05-24T11:36:32;15.30;88.60
31733;DHT22;18312;51.486;7.144;2023-05-24T11:39:00;15.50;89.60
31733;DHT22;18312;51.486;7.144;2023-05-24T11:41:28;14.90;89.90
31733;DHT22;18312;51.486;7.144;2023-05-24T11:43:55;14.90;90.40
31733;DHT22;18312;51.486;7.144;2023-05-24T11:46:22;15.00;90.90
31733;DHT22;18312;51.486;7.144;2023-05-24T11:48:55;14.90;90.20
31733;DHT22;18312;51.486;7.144;2023-05-24T11:51:26;14.80;90.40
31733;DHT22;18312;51.486;7.144;2023-05-24T11:53:56;14.80;90.60
31733;DHT22;18312;51.486;7.144;2023-05-24T11:56:23;14.90;90.30
31733;DHT22;18312;51.486;7.144;2023-05-24T11:58:55;15.00;90.30
31733;DHT22;18312;51.486;7.144;2023-05-24T12:01:25;15.00;89.00
31733;DHT22;18312;51.486;7.144;2023-05-24T12:03:53;15.10;89.70
31733;DHT22;18312;51.486;7.144;2023-05-24T12:06:20;14.90;89.40
31733;DHT22;18312;51.486;7.144;2023-05-24T12:08:47;14.90;89.70
31733;DHT22;18312;51.486;7.144;2023-05-24T12:11:15;14.80;88.80
31733;DHT22;18312;51.486;7.144;2023-05-24T12:13:42;15.20;89.50
31733;DHT22;18312;51.486;7.144;2023-05-24T12:16:10;14.80;88.40
31733;DHT22;18312;51.486;7.144;2023-05-24T12:18:38;15.50;89.50
31733;DHT22;18312;51.486;7.144;2023-05-24T12:21:08;15.50;88.40
31733;DHT22;18312;51.486;7.144;2023-05-24T12:23:35;15.10;88.60
31733;DHT22;18312;51.486;7.144;2023-05-24T12:26:04;15.00;89.00
31733;DHT22;18312;51.486;7.144;2023-05-24T12:28:36;15.60;88.50
31733;DHT22;18312;51.486;7.144;2023-05-24T12:31:04;16.20;88.10
31733;DHT22;18312;51.486;7.144;2023-05-24T12:33:32;16.30;88.40
31733;DHT22;18312;51.486;7.144;2023-05-24T12:35:59;16.00;87.80
31733;DHT22;18312;51.486;7.144;2023-05-24T12:38:26;16.00;85.70
31733;DHT22;18312;51.486;7.144;2023-05-24T12:40:53;16.30;88.10
31733;DHT22;18312;51.486;7.144;2023-05-24T12:43:20;16.60;88.20
31733;DHT22;18312;51.486;7.144;2023-05-24T12:45:49;16.30;85.20
31733;DHT22;18312;51.486;7.144;2023-05-24T12:48:15;16.20;87.10
31733;DHT22;18312;51.486;7.144;2023-05-24T12:50:42;16.20;86.90
31733;DHT22;18312;51.486;7.144;2023-05-24T12:53:09;16.10;88.20
31733;DHT22;18312;51.486;7.144;2023-05-24T12:55:36;16.40;89.30
31733;DHT22;18312;51.486;7.144;2023-05-24T12:58:02;16.80;87.10
31733;DHT22;18312;51.486;7.144;2023-05-24T13:00:32;17.10;86.30
31733;DHT22;18312;51.486;7.144;2023-05-24T13:03:00;17.10;87.60
31733;DHT22;18312;51.486;7.144;2023-05-24T13:05:28;17.20;84.70
31733;DHT22;18312;51.486;7.144;2023-05-24T13:07:58;16.80;84.10
31733;DHT22;18312;51.486;7.144;2023-05-24T13:10:25;16.70;85.50
31733;DHT22;18312;51.486;7.144;2023-05-24T13:12:52;17.10;85.40
31733;DHT22;18312;51.486;7.144;2023-05-24T13:15:18;17.00;83.30
31733;DHT22;18312;51.486;7.144;2023-05-24T13:17:47;17.30;82.80
31733;DHT22;18312;51.486;7.144;2023-05-24T13:20:15;17.70;81.50
31733;DHT22;18312;51.486;7.144;2023-05-24T13:22:46;17.50;82.00
31733;DHT22;18312;51.486;7.144;2023-05-24T13:25:13;17.50;82.60
31733;DHT22;18312;51.486;7.144;2023-05-24T13:27:40;17.10;83.20
31733;DHT22;18312;51.486;7.144;2023-05-24T13:30:08;16.30;84.60
31733;DHT22;18312;51.486;7.144;2023-05-24T13:32:35;16.10;86.80
31733;DHT22;18312;51.486;7.144;2023-05-24T13:35:01;16.10;87.70
31733;DHT22;18312;51.486;7.144;2023-05-24T13:37:29;16.30;87.90
31733;DHT22;18312;51.486;7.144;2023-05-24T13:39:56;16.40;88.40
31733;DHT22;18312;51.486;7.144;2023-05-24T13:42:23;16.50;86.60
31733;DHT22;18312;51.486;7.144;2023-05-24T13:44:49;16.60;86.80
31733;DHT22;18312;51.486;7.144;2023-05-24T13:47:17;16.70;85.00
31733;DHT22;18312;51.486;7.144;2023-05-24T13:49:45;16.60;85.80
31733;DHT22;18312;51.486;7.144;2023-05-24T13:52:12;16.70;84.80
31733;DHT22;18312;51.486;7.144;2023-05-24T13:54:40;16.80;86.30
31733;DHT22;18312;51.486;7.144;2023-05-24T13:57:07;16.50;86.30
31733;DHT22;18312;51.486;7.144;2023-05-24T13:59:34;16.40;86.00
31733;DHT22;18312;51.486;7.144;2023-05-24T14:02:00;16.20;86.20
31733;DHT22;18312;51.486;7.144;2023-05-24T14:04:27;15.80;88.20
31733;DHT22;18312;51.486;7.144;2023-05-24T14:06:55;15.50;88.20
31733;DHT22;18312;51.486;7.144;2023-05-24T14:09:22;15.40;89.30
31733;DHT22;18312;51.486;7.144;2023-05-24T14:11:51;15.40;90.00
31733;DHT22;18312;51.486;7.144;2023-05-24T14:14:18;15.30;90.20
31733;DHT22;18312;51.486;7.144;2023-05-24T14:16:45;15.40;90.50
31733;DHT22;18312;51.486;7.144;2023-05-24T14:19:15;15.40;90.30
31733;DHT22;18312;51.486;7.144;2023-05-24T14:21:42;15.50;89.80
31733;DHT22;18312;51.486;7.144;2023-05-24T14:24:09;15.60;90.20
31733;DHT22;18312;51.486;7.144;2023-05-24T14:26:35;15.60;90.40
31733;DHT22;18312;51.486;7.144;2023-05-24T14:29:04;15.60;90.40
31733;DHT22;18312;51.486;7.144;2023-05-24T14:31:31;15.50;90.00
31733;DHT22;18312;51.486;7.144;2023-05-24T14:34:01;15.80;90.20
31733;DHT22;18312;51.486;7.144;2023-05-24T14:36:27;16.00;90.00
31733;DHT22;18312;51.486;7.144;2023-05-24T14:38:54;15.80;89.80
31733;DHT22;18312;51.486;7.144;2023-05-24T14:41:21;16.40;89.40
31733;DHT22;18312;51.486;7.144;2023-05-24T14:43:48;17.20;88.10
31733;DHT22;18312;51.486;7.144;2023-05-24T14:46:16;18.00;87.10
31733;DHT22;18312;51.486;7.144;2023-05-24T14:48:43;17.70;85.40
31733;DHT22;18312;51.486;7.144;2023-05-24T14:51:10;17.40;86.20
31733;DHT22;18312;51.486;7.144;2023-05-24T14:53:37;17.40;85.50
31733;DHT22;18312;51.486;7.144;2023-05-24T14:56:04;16.90;86.40
31733;DHT22;18312;51.486;7.144;2023-05-24T14:58:33;16.70;88.20
31733;DHT22;18312;51.486;7.144;2023-05-24T15:01:00;16.50;88.60
31733;DHT22;18312;51.486;7.144;2023-05-24T15:03:28;16.60;88.20
31733;DHT22;18312;51.486;7.144;2023-05-24T15:05:55;16.60;87.90
31733;DHT22;18312;51.486;7.144;2023-05-24T15:08:21;16.20;88.70
31733;DHT22;18312;51.486;7.144;2023-05-24T15:10:48;16.20;90.20
31733;DHT22;18312;51.486;7.144;2023-05-24T15:13:15;15.90;88.40
31733;DHT22;18312;51.486;7.144;2023-05-24T15:15:43;16.30;89.70
31733;DHT22;18312;51.486;7.144;2023-05-24T15:18:09;16.30;87.80
31733;DHT22;18312;51.486;7.144;2023-05-24T15:20:37;16.20;88.50
31733;DHT22;18312;51.486;7.144;2023-05-24T15:23:05;16.60;88.80
31733;DHT22;18312;51.486;7.144;2023-05-24T15:25:34;16.60;89.50
31733;DHT22;18312;51.486;7.144;2023-05-24T15:28:01;16.60;88.50
31733;DHT22;18312;51.486;7.144;2023-05-24T15:30:28;16.80;88.90
31733;DHT22;18312;51.486;7.144;2023-05-24T15:32:55;17.90;87.70
31733;DHT22;18312;51.486;7.144;2023-05-24T15:35:22;18.40;82.40
31733;DHT22;18312;51.486;7.144;2023-05-24T15:37:50;18.50;83.60
31733;DHT22;18312;51.486;7.144;2023-05-24T15:40:17;17.30;84.10
31733;DHT22;18312;51.486;7.144;2023-05-24T15:42:44;17.60;86.30